sensor_id;sensor_type;location;lat;lon;timestamp;temperature;humidity
9941;DHT22;5009;50.656;7.188;2023-04-09T04:02:19;7.80;99.90
9941;DHT22;5009;50.656;7.188;2023-04-09T04:04:45;7.80;99.90
9941;DHT22;5009;50.656;7.188;2023-04-09T04:07:10;7.80;99.90
9941;DHT22;5009;50.656;7.188;2023-04-09T04:09:36;7.80;99.90
9941;DHT22;5009;50.656;7.188;2023-04-09T04:12:02;7.80;99.90
9941;DHT22;5009;50.656;7.188;2023-04-09T04:14:27;7.80;99.90
9941;DHT22;5009;50.656;7.188;2023-04-09T04:16:53;7.80;99.90
9941;DHT22;5009;50.656;7.188;2023-04-09T04:19:18;7.80;99.90
9941;DHT22;5009;50.656;7.188;2023-04-09T04:21:44;7.80;99.90
9941;DHT22;5009;50.656;7.188;2023-04-09T04:24:09;7.80;99.90
9941;DHT22;5009;50.656;7.188;2023-04-09T04:26:35;7.80;99.90
9941;DHT22;5009;50.656;7.188;2023-04-09T04:29:00;7.80;99.90
9941;DHT22;5009;50.656;7.188;2023-04-09T04:31:26;7.80;99.90
9941;DHT22;5009;50.656;7.188;2023-04-09T04:33:51;7.80;99.90
9941;DHT22;5009;50.656;7.188;2023-04-09T04:36:17;7.80;99.90
9941;DHT22;5009;50.656;7.188;2023-04-09T04:38:42;7.80;99.90
9941;DHT22;5009;50.656;7.188;2023-04-09T04:41:10;7.80;99.90
9941;DHT22;5009;50.656;7.188;2023-04-09T04:43:35;7.90;99.90
9941;DHT22;5009;50.656;7.188;2023-04-09T04:46:01;7.80;99.90
9941;DHT22;5009;50.656;7.188;2023-04-09T04:48:27;7.90;99.90
9941;DHT22;5009;50.656;7.188;2023-04-09T04:50:57;7.90;99.90
9941;DHT22;5009;50.656;7.188;2023-04-09T04:53:23;7.90;99.90
9941;DHT22;5009;50.656;7.188;2023-04-09T04:55:49;7.80;99.90
9941;DHT22;5009;50.656;7.188;2023-04-09T04:58:15;7.80;99.90
9941;DHT22;5009;50.656;7.188;2023-04-09T05:00:41;7.80;99.90
9941;DHT22;5009;50.656;7.188;2023-04-09T05:03:06;7.80;99.90
9941;DHT22;5009;50.656;7.188;2023-04-09T05:05:32;7.80;99.90
9941;DHT22;5009;50.656;7.188;2023-04-09T05:07:57;7.80;99.90
9941;DHT22;5009;50.656;7.188;2023-04-09T05:10:23;7.70;99.90
9941;DHT22;5009;50.656;7.188;2023-04-09T05:12:48;7.80;99.90
9941;DHT22;5009;50.656;7.188;2023-04-09T05:15:14;7.80;99.90
9941;DHT22;5009;50.656;7.188;2023-04-09T05:17:42;7.80;99.90
9941;DHT22;5009;50.656;7.188;2023-04-09T05:20:09;7.80;99.90
9941;DHT22;5009;50.656;7.188;2023-04-09T05:22:34;7.80;99.90
9941;DHT22;5009;50.656;7.188;2023-04-09T05:25:00;7.80;99.90
9941;DHT22;5009;50.656;7.188;2023-04-09T05:27:26;7.80;99.90
9941;DHT22;5009;50.656;7.188;2023-04-09T05:29:52;7.80;99.90
9941;DHT22;5009;50.656;7.188;2023-04-09T05:32:18;7.80;99.90
9941;DHT22;5009;50.656;7.188;2023-04-09T05:34:43;7.80;99.90
9941;DHT22;5009;50.656;7.188;2023-04-09T05:37:09;7.80;99.90
9941;DHT22;5009;50.656;7.188;2023-04-09T05:39:35;7.90;99.90
9941;DHT22;5009;50.656;7.188;2023-04-09T05:42:00;7.90;99.90
9941;DHT22;5009;50.656;7.188;2023-04-09T05:44:26;7.90;99.90
9941;DHT22;5009;50.656;7.188;2023-04-09T05:46:52;8.00;99.90
9941;DHT22;5009;50.656;7.188;2023-04-09T05:49:17;7.90;99.90
9941;DHT22;5009;50.656;7.188;2023-04-09T05:51:43;7.90;99.90
9941;DHT22;5009;50.656;7.188;2023-04-09T05:54:08;7.90;99.90
9941;DHT22;5009;50.656;7.188;2023-04-09T05:56:34;8.00;99.90
9941;DHT22;5009;50.656;7.188;2023-04-09T05:58:59;8.10;99.90
9941;DHT22;5009;50.656;7.188;2023-04-09T06:01:25;8.20;99.90
9941;DHT22;5009;50.656;7.188;2023-04-09T06:03:51;8.30;99.90
9941;DHT22;5009;50.656;7.188;2023-04-09T06:06:17;8.30;99.90
9941;DHT22;5009;50.656;7.188;2023-04-09T06:08:42;8.30;99.90
9941;DHT22;5009;50.656;7.188;2023-04-09T06:11:12;8.40;99.90
9941;DHT22;5009;50.656;7.188;2023-04-09T06:13:38;8.40;99.90
9941;DHT22;5009;50.656;7.188;2023-04-09T06:16:05;8.60;99.90
9941;DHT22;5009;50.656;7.188;2023-04-09T06:18:31;8.60;99.90
9941;DHT22;5009;50.656;7.188;2023-04-09T06:21:03;8.60;99.90
9941;DHT22;5009;50.656;7.188;2023-04-09T06:23:31;8.70;99.90
9941;DHT22;5009;50.656;7.188;2023-04-09T06:25:57;8.90;99.90
9941;DHT22;5009;50.656;7.188;2023-04-09T06:28:23;8.90;99.90
9941;DHT22;5009;50.656;7.188;2023-04-09T06:30:49;9.00;99.90
9941;DHT22;5009;50.656;7.188;2023-04-09T06:33:14;9.20;99.90
9941;DHT22;5009;50.656;7.188;2023-04-09T06:35:40;9.30;99.90
9941;DHT22;5009;50.656;7.188;2023-04-09T06:38:06;9.40;99.90
9941;DHT22;5009;50.656;7.188;2023-04-09T06:40:37;9.50;99.90
9941;DHT22;5009;50.656;7.188;2023-04-09T06:43:03;9.70;99.90
9941;DHT22;5009;50.656;7.188;2023-04-09T06:45:30;9.90;99.90
9941;DHT22;5009;50.656;7.188;2023-04-09T06:47:56;10.10;99.90
9941;DHT22;5009;50.656;7.188;2023-04-09T06:50:21;10.80;99.90
9941;DHT22;5009;50.656;7.188;2023-04-09T06:52:47;12.20;99.90
9941;DHT22;5009;50.656;7.188;2023-04-09T06:55:12;14.00;97.30
9941;DHT22;5009;50.656;7.188;2023-04-09T06:57:38;15.30;94.50
9941;DHT22;5009;50.656;7.188;2023-04-09T07:00:04;16.00;91.40
9941;DHT22;5009;50.656;7.188;2023-04-09T07:02:31;17.40;89.00
9941;DHT22;5009;50.656;7.188;2023-04-09T07:04:56;18.70;84.90
9941;DHT22;5009;50.656;7.188;2023-04-09T07:07:22;19.50;80.00
9941;DHT22;5009;50.656;7.188;2023-04-09T07:09:47;20.60;76.30
9941;DHT22;5009;50.656;7.188;2023-04-09T07:12:13;20.40;72.10
9941;DHT22;5009;50.656;7.188;2023-04-09T07:14:39;20.80;69.20
9941;DHT22;5009;50.656;7.188;2023-04-09T07:17:04;19.70;65.70
9941;DHT22;5009;50.656;7.188;2023-04-09T07:19:30;20.60;67.70
9941;DHT22;5009;50.656;7.188;2023-04-09T07:21:55;20.70;65.50
9941;DHT22;5009;50.656;7.188;2023-04-09T07:24:21;20.90;63.80
9941;DHT22;5009;50.656;7.188;2023-04-09T07:26:47;21.10;59.20
9941;DHT22;5009;50.656;7.188;2023-04-09T07:29:12;21.10;59.40
9941;DHT22;5009;50.656;7.188;2023-04-09T07:31:38;21.50;58.70
9941;DHT22;5009;50.656;7.188;2023-04-09T07:34:04;21.30;57.70
9941;DHT22;5009;50.656;7.188;2023-04-09T07:36:29;21.20;56.80
9941;DHT22;5009;50.656;7.188;2023-04-09T07:38:56;20.20;56.70
9941;DHT22;5009;50.656;7.188;2023-04-09T07:41:21;19.30;57.10
9941;DHT22;5009;50.656;7.188;2023-04-09T07:43:47;19.70;58.20
9941;DHT22;5009;50.656;7.188;2023-04-09T07:46:18;19.40;58.10
9941;DHT22;5009;50.656;7.188;2023-04-09T07:48:44;19.10;58.30
9941;DHT22;5009;50.656;7.188;2023-04-09T07:51:10;18.40;58.10
9941;DHT22;5009;50.656;7.188;2023-04-09T07:53:35;18.40;59.20
9941;DHT22;5009;50.656;7.188;2023-04-09T07:56:01;18.20;58.10
9941;DHT22;5009;50.656;7.188;2023-04-09T07:58:26;17.80;58.40
9941;DHT22;5009;50.656;7.188;2023-04-09T08:00:52;17.80;59.30
9941;DHT22;5009;50.656;7.188;2023-04-09T08:03:18;18.00;58.50
9941;DHT22;5009;50.656;7.188;2023-04-09T08:05:43;18.10;59.10
9941;DHT22;5009;50.656;7.188;2023-04-09T08:08:09;18.60;58.70
9941;DHT22;5009;50.656;7.188;2023-04-09T08:10:35;18.70;58.20
9941;DHT22;5009;50.656;7.188;2023-04-09T08:13:00;19.10;58.00
9941;DHT22;5009;50.656;7.188;2023-04-09T08:15:26;19.10;57.30
9941;DHT22;5009;50.656;7.188;2023-04-09T08:17:52;19.10;57.10
9941;DHT22;5009;50.656;7.188;2023-04-09T08:20:17;19.70;57.50
9941;DHT22;5009;50.656;7.188;2023-04-09T08:22:43;20.10;56.70
9941;DHT22;5009;50.656;7.188;2023-04-09T08:25:09;20.10;56.10
9941;DHT22;5009;50.656;7.188;2023-04-09T08:27:35;20.20;54.80
9941;DHT22;5009;50.656;7.188;2023-04-09T08:30:01;20.30;54.70
9941;DHT22;5009;50.656;7.188;2023-04-09T08:32:28;19.80;53.40
9941;DHT22;5009;50.656;7.188;2023-04-09T08:34:53;19.70;55.40
9941;DHT22;5009;50.656;7.188;2023-04-09T08:37:19;20.20;54.90
9941;DHT22;5009;50.656;7.188;2023-04-09T08:39:44;19.20;53.90
9941;DHT22;5009;50.656;7.188;2023-04-09T08:42:10;19.50;53.60
9941;DHT22;5009;50.656;7.188;2023-04-09T08:44:36;19.40;54.70
9941;DHT22;5009;50.656;7.188;2023-04-09T08:47:09;19.70;55.10
9941;DHT22;5009;50.656;7.188;2023-04-09T08:49:40;19.70;53.40
9941;DHT22;5009;50.656;7.188;2023-04-09T08:52:06;19.30;53.30
9941;DHT22;5009;50.656;7.188;2023-04-09T08:54:32;19.30;53.50
9941;DHT22;5009;50.656;7.188;2023-04-09T08:56:57;19.10;53.50
9941;DHT22;5009;50.656;7.188;2023-04-09T08:59:23;18.80;53.00
9941;DHT22;5009;50.656;7.188;2023-04-09T09:02:08;18.90;54.10
9941;DHT22;5009;50.656;7.188;2023-04-09T09:04:48;19.00;54.30
9941;DHT22;5009;50.656;7.188;2023-04-09T09:07:14;19.40;54.50
9941;DHT22;5009;50.656;7.188;2023-04-09T09:09:54;19.60;54.80
9941;DHT22;5009;50.656;7.188;2023-04-09T09:12:49;19.60;54.10
9941;DHT22;5009;50.656;7.188;2023-04-09T09:15:28;19.60;54.40
9941;DHT22;5009;50.656;7.188;2023-04-09T09:17:56;19.50;54.40
9941;DHT22;5009;50.656;7.188;2023-04-09T09:20:23;19.30;54.00
9941;DHT22;5009;50.656;7.188;2023-04-09T09:22:53;19.00;54.60
9941;DHT22;5009;50.656;7.188;2023-04-09T09:25:19;18.70;54.70
9941;DHT22;5009;50.656;7.188;2023-04-09T09:27:49;18.80;54.80
9941;DHT22;5009;50.656;7.188;2023-04-09T09:30:25;18.20;53.30
9941;DHT22;5009;50.656;7.188;2023-04-09T09:33:10;18.40;54.30
9941;DHT22;5009;50.656;7.188;2023-04-09T09:35:49;17.90;54.30
9941;DHT22;5009;50.656;7.188;2023-04-09T09:38:15;17.60;54.30
9941;DHT22;5009;50.656;7.188;2023-04-09T09:40:42;17.20;55.50
9941;DHT22;5009;50.656;7.188;2023-04-09T09:43:08;17.10;54.70
9941;DHT22;5009;50.656;7.188;2023-04-09T09:45:35;17.10;54.50
9941;DHT22;5009;50.656;7.188;2023-04-09T09:48:01;17.10;54.30
9941;DHT22;5009;50.656;7.188;2023-04-09T09:50:29;17.30;55.40
9941;DHT22;5009;50.656;7.188;2023-04-09T09:53:02;17.50;55.40
9941;DHT22;5009;50.656;7.188;2023-04-09T09:55:32;17.20;53.70
9941;DHT22;5009;50.656;7.188;2023-04-09T09:58:01;17.20;54.80
9941;DHT22;5009;50.656;7.188;2023-04-09T10:00:30;16.80;54.60
9941;DHT22;5009;50.656;7.188;2023-04-09T10:02:58;16.70;55.30
9941;DHT22;5009;50.656;7.188;2023-04-09T10:05:30;16.80;55.60
9941;DHT22;5009;50.656;7.188;2023-04-09T10:07:56;16.70;55.50
9941;DHT22;5009;50.656;7.188;2023-04-09T10:10:23;16.60;55.50
9941;DHT22;5009;50.656;7.188;2023-04-09T10:12:51;16.70;55.50
9941;DHT22;5009;50.656;7.188;2023-04-09T10:15:18;16.90;55.40
9941;DHT22;5009;50.656;7.188;2023-04-09T10:17:44;16.20;55.10
9941;DHT22;5009;50.656;7.188;2023-04-09T10:20:14;16.10;54.90
9941;DHT22;5009;50.656;7.188;2023-04-09T10:22:45;16.30;55.50
9941;DHT22;5009;50.656;7.188;2023-04-09T10:25:12;16.40;56.20
9941;DHT22;5009;50.656;7.188;2023-04-09T10:27:38;16.30;56.30
9941;DHT22;5009;50.656;7.188;2023-04-09T10:30:04;15.90;55.20
9941;DHT22;5009;50.656;7.188;2023-04-09T10:32:34;15.90;55.60
9941;DHT22;5009;50.656;7.188;2023-04-09T10:35:01;15.60;55.80
9941;DHT22;5009;50.656;7.188;2023-04-09T10:37:28;15.80;56.50
9941;DHT22;5009;50.656;7.188;2023-04-09T10:39:54;15.60;56.20
9941;DHT22;5009;50.656;7.188;2023-04-09T10:42:34;15.60;55.90
9941;DHT22;5009;50.656;7.188;2023-04-09T10:45:10;15.40;55.90
9941;DHT22;5009;50.656;7.188;2023-04-09T10:47:38;15.50;56.40
9941;DHT22;5009;50.656;7.188;2023-04-09T10:52:45;15.60;56.00
9941;DHT22;5009;50.656;7.188;2023-04-09T10:57:56;15.40;56.10
9941;DHT22;5009;50.656;7.188;2023-04-09T11:00:22;15.30;56.10
9941;DHT22;5009;50.656;7.188;2023-04-09T11:03:15;15.40;55.70
9941;DHT22;5009;50.656;7.188;2023-04-09T11:05:50;15.70;57.20
9941;DHT22;5009;50.656;7.188;2023-04-09T11:08:17;15.80;56.50
9941;DHT22;5009;50.656;7.188;2023-04-09T11:10:44;15.90;55.60
9941;DHT22;5009;50.656;7.188;2023-04-09T11:13:16;15.40;54.20
9941;DHT22;5009;50.656;7.188;2023-04-09T11:15:43;15.40;54.40
9941;DHT22;5009;50.656;7.188;2023-04-09T11:18:13;15.50;54.90
9941;DHT22;5009;50.656;7.188;2023-04-09T11:20:39;15.60;55.20
9941;DHT22;5009;50.656;7.188;2023-04-09T11:23:05;15.80;55.60
9941;DHT22;5009;50.656;7.188;2023-04-09T11:25:32;16.00;55.20
9941;DHT22;5009;50.656;7.188;2023-04-09T11:27:59;16.10;55.70
9941;DHT22;5009;50.656;7.188;2023-04-09T11:30:25;16.00;55.50
9941;DHT22;5009;50.656;7.188;2023-04-09T11:32:51;15.90;55.90
9941;DHT22;5009;50.656;7.188;2023-04-09T11:35:19;16.10;56.60
9941;DHT22;5009;50.656;7.188;2023-04-09T11:37:45;16.30;56.30
9941;DHT22;5009;50.656;7.188;2023-04-09T11:42:51;16.10;55.60
9941;DHT22;5009;50.656;7.188;2023-04-09T11:45:18;16.00;55.30
9941;DHT22;5009;50.656;7.188;2023-04-09T11:47:44;15.90;55.00
9941;DHT22;5009;50.656;7.188;2023-04-09T11:50:12;16.10;56.50
9941;DHT22;5009;50.656;7.188;2023-04-09T11:52:38;16.00;55.70
9941;DHT22;5009;50.656;7.188;2023-04-09T11:55:06;16.00;55.80
9941;DHT22;5009;50.656;7.188;2023-04-09T11:57:40;16.20;55.90
9941;DHT22;5009;50.656;7.188;2023-04-09T12:00:15;16.00;54.80
9941;DHT22;5009;50.656;7.188;2023-04-09T12:02:49;16.00;54.90
9941;DHT22;5009;50.656;7.188;2023-04-09T12:05:29;16.20;55.00
9941;DHT22;5009;50.656;7.188;2023-04-09T12:08:02;16.00;55.10
9941;DHT22;5009;50.656;7.188;2023-04-09T12:10:31;16.10;54.50
9941;DHT22;5009;50.656;7.188;2023-04-09T12:13:05;16.20;55.20
9941;DHT22;5009;50.656;7.188;2023-04-09T12:15:33;16.10;55.60
9941;DHT22;5009;50.656;7.188;2023-04-09T12:17:58;16.10;56.00
9941;DHT22;5009;50.656;7.188;2023-04-09T12:20:32;16.20;56.10
9941;DHT22;5009;50.656;7.188;2023-04-09T12:23:00;16.30;55.30
9941;DHT22;5009;50.656;7.188;2023-04-09T12:25:28;16.30;55.20
9941;DHT22;5009;50.656;7.188;2023-04-09T12:27:54;16.40;55.00
9941;DHT22;5009;50.656;7.188;2023-04-09T12:30:20;16.20;54.30
9941;DHT22;5009;50.656;7.188;2023-04-09T12:32:46;16.30;54.70
9941;DHT22;5009;50.656;7.188;2023-04-09T12:35:13;16.20;54.50
9941;DHT22;5009;50.656;7.188;2023-04-09T12:37:39;16.30;54.50
9941;DHT22;5009;50.656;7.188;2023-04-09T12:40:05;16.20;54.10
9941;DHT22;5009;50.656;7.188;2023-04-09T12:42:30;16.10;53.90
9941;DHT22;5009;50.656;7.188;2023-04-09T12:44:56;16.10;54.00
9941;DHT22;5009;50.656;7.188;2023-04-09T12:47:21;16.10;54.20
9941;DHT22;5009;50.656;7.188;2023-04-09T12:49:47;16.00;54.50
9941;DHT22;5009;50.656;7.188;2023-04-09T12:52:14;16.00;54.00
9941;DHT22;5009;50.656;7.188;2023-04-09T12:54:40;16.10;53.90
9941;DHT22;5009;50.656;7.188;2023-04-09T12:57:06;16.10;54.20
9941;DHT22;5009;50.656;7.188;2023-04-09T12:59:32;16.10;53.80
9941;DHT22;5009;50.656;7.188;2023-04-09T13:01:57;16.20;54.20
9941;DHT22;5009;50.656;7.188;2023-04-09T13:04:23;16.20;54.30
9941;DHT22;5009;50.656;7.188;2023-04-09T13:06:48;16.20;54.20
9941;DHT22;5009;50.656;7.188;2023-04-09T13:09:14;16.30;54.50
9941;DHT22;5009;50.656;7.188;2023-04-09T13:11:40;16.30;54.30
9941;DHT22;5009;50.656;7.188;2023-04-09T13:14:05;16.30;54.30
9941;DHT22;5009;50.656;7.188;2023-04-09T13:16:31;16.40;54.30
9941;DHT22;5009;50.656;7.188;2023-04-09T13:18:57;16.60;55.00
9941;DHT22;5009;50.656;7.188;2023-04-09T13:21:23;16.70;54.70
9941;DHT22;5009;50.656;7.188;2023-04-09T13:23:48;16.80;54.80
9941;DHT22;5009;50.656;7.188;2023-04-09T13:26:14;16.80;54.60
9941;DHT22;5009;50.656;7.188;2023-04-09T13:28:39;16.80;54.40
9941;DHT22;5009;50.656;7.188;2023-04-09T13:31:05;16.50;53.70
9941;DHT22;5009;50.656;7.188;2023-04-09T13:33:31;16.50;53.90
9941;DHT22;5009;50.656;7.188;2023-04-09T13:35:56;16.50;53.70
9941;DHT22;5009;50.656;7.188;2023-04-09T13:38:22;16.60;53.70
9941;DHT22;5009;50.656;7.188;2023-04-09T13:40:48;16.70;54.20
9941;DHT22;5009;50.656;7.188;2023-04-09T13:43:13;16.40;53.10
9941;DHT22;5009;50.656;7.188;2023-04-09T13:45:39;16.40;53.20
9941;DHT22;5009;50.656;7.188;2023-04-09T13:48:05;16.30;52.60
9941;DHT22;5009;50.656;7.188;2023-04-09T13:50:31;16.40;53.10
9941;DHT22;5009;50.656;7.188;2023-04-09T13:52:57;16.60;53.60
9941;DHT22;5009;50.656;7.188;2023-04-09T13:55:23;16.60;52.70
9941;DHT22;5009;50.656;7.188;2023-04-09T13:57:48;16.50;52.70
9941;DHT22;5009;50.656;7.188;2023-04-09T14:00:14;16.60;53.30
9941;DHT22;5009;50.656;7.188;2023-04-09T14:02:39;16.30;52.20
9941;DHT22;5009;50.656;7.188;2023-04-09T14:05:06;16.10;52.40
9941;DHT22;5009;50.656;7.188;2023-04-09T14:07:31;15.90;52.30
9941;DHT22;5009;50.656;7.188;2023-04-09T14:09:57;16.00;52.80
9941;DHT22;5009;50.656;7.188;2023-04-09T14:12:22;16.10;52.70
9941;DHT22;5009;50.656;7.188;2023-04-09T14:14:48;16.30;53.30
9941;DHT22;5009;50.656;7.188;2023-04-09T14:17:14;16.50;53.30
9941;DHT22;5009;50.656;7.188;2023-04-09T14:19:40;16.50;52.50
9941;DHT22;5009;50.656;7.188;2023-04-09T14:22:05;16.50;52.50
9941;DHT22;5009;50.656;7.188;2023-04-09T14:24:35;16.50;52.50
9941;DHT22;5009;50.656;7.188;2023-04-09T14:27:07;16.50;52.40
9941;DHT22;5009;50.656;7.188;2023-04-09T14:29:33;16.30;52.10
9941;DHT22;5009;50.656;7.188;2023-04-09T14:31:58;16.30;52.00
9941;DHT22;5009;50.656;7.188;2023-04-09T14:34:25;16.20;51.90
9941;DHT22;5009;50.656;7.188;2023-04-09T14:36:51;16.20;52.50
9941;DHT22;5009;50.656;7.188;2023-04-09T14:39:16;16.20;52.20
9941;DHT22;5009;50.656;7.188;2023-04-09T14:41:43;16.30;51.80
9941;DHT22;5009;50.656;7.188;2023-04-09T14:44:08;16.40;52.40
9941;DHT22;5009;50.656;7.188;2023-04-09T14:46:35;16.30;51.70
9941;DHT22;5009;50.656;7.188;2023-04-09T14:49:01;16.20;51.60
9941;DHT22;5009;50.656;7.188;2023-04-09T14:51:27;16.20;52.30
9941;DHT22;5009;50.656;7.188;2023-04-09T14:53:55;16.20;52.30
9941;DHT22;5009;50.656;7.188;2023-04-09T14:56:21;16.00;51.90
9941;DHT22;5009;50.656;7.188;2023-04-09T14:58:47;16.20;52.20
9941;DHT22;5009;50.656;7.188;2023-04-09T15:01:12;16.10;52.10
9941;DHT22;5009;50.656;7.188;2023-04-09T15:03:38;16.20;52.20
9941;DHT22;5009;50.656;7.188;2023-04-09T15:06:06;16.30;52.60
9941;DHT22;5009;50.656;7.188;2023-04-09T15:08:32;16.10;51.50
9941;DHT22;5009;50.656;7.188;2023-04-09T15:10:57;16.10;51.80
9941;DHT22;5009;50.656;7.188;2023-04-09T15:13:23;16.10;52.00
9941;DHT22;5009;50.656;7.188;2023-04-09T15:15:49;16.10;52.20
9941;DHT22;5009;50.656;7.188;2023-04-09T15:18:14;15.80;51.50
9941;DHT22;5009;50.656;7.188;2023-04-09T15:20:40;15.50;51.50
9941;DHT22;5009;50.656;7.188;2023-04-09T15:23:08;15.40;51.20
9941;DHT22;5009;50.656;7.188;2023-04-09T15:25:34;15.40;51.60
9941;DHT22;5009;50.656;7.188;2023-04-09T15:28:00;15.40;51.80
9941;DHT22;5009;50.656;7.188;2023-04-09T15:30:26;15.50;52.30
9941;DHT22;5009;50.656;7.188;2023-04-09T15:32:52;15.40;52.60
9941;DHT22;5009;50.656;7.188;2023-04-09T15:35:17;15.50;52.90
9941;DHT22;5009;50.656;7.188;2023-04-09T15:37:49;15.30;52.30
9941;DHT22;5009;50.656;7.188;2023-04-09T15:40:16;15.20;52.80
9941;DHT22;5009;50.656;7.188;2023-04-09T15:42:41;15.20;53.00
9941;DHT22;5009;50.656;7.188;2023-04-09T15:45:07;15.10;52.70
9941;DHT22;5009;50.656;7.188;2023-04-09T15:47:33;15.20;53.00
9941;DHT22;5009;50.656;7.188;2023-04-09T15:49:58;15.20;52.60
9941;DHT22;5009;50.656;7.188;2023-04-09T15:52:24;15.10;52.60
9941;DHT22;5009;50.656;7.188;2023-04-09T15:54:51;15.10;53.10
9941;DHT22;5009;50.656;7.188;2023-04-09T15:57:17;15.10;53.10
9941;DHT22;5009;50.656;7.188;2023-04-09T15:59:42;15.00;52.50
9941;DHT22;5009;50.656;7.188;2023-04-09T16:02:08;14.80;52.40
9941;DHT22;5009;50.656;7.188;2023-04-09T16:04:33;14.80;52.40
9941;DHT22;5009;50.656;7.188;2023-04-09T16:07:00;14.70;52.60
9941;DHT22;5009;50.656;7.188;2023-04-09T16:09:26;14.80;52.80
9941;DHT22;5009;50.656;7.188;2023-04-09T16:11:52;14.80;52.70
9941;DHT22;5009;50.656;7.188;2023-04-09T16:14:17;14.80;52.70
9941;DHT22;5009;50.656;7.188;2023-04-09T16:16:43;14.80;52.50
9941;DHT22;5009;50.656;7.188;2023-04-09T16:19:12;14.80;52.80
9941;DHT22;5009;50.656;7.188;2023-04-09T16:21:38;14.80;53.00
9941;DHT22;5009;50.656;7.188;2023-04-09T16:24:08;14.80;53.20
9941;DHT22;5009;50.656;7.188;2023-04-09T16:26:35;14.80;53.20
9941;DHT22;5009;50.656;7.188;2023-04-09T16:29:01;14.80;53.10
9941;DHT22;5009;50.656;7.188;2023-04-09T16:31:28;14.70;52.90
9941;DHT22;5009;50.656;7.188;2023-04-09T16:33:54;14.80;53.20
9941;DHT22;5009;50.656;7.188;2023-04-09T16:36:19;14.70;53.00
9941;DHT22;5009;50.656;7.188;2023-04-09T16:38:45;14.60;52.80
9941;DHT22;5009;50.656;7.188;2023-04-09T16:41:11;14.60;52.70
9941;DHT22;5009;50.656;7.188;2023-04-09T16:43:37;14.50;52.70
9941;DHT22;5009;50.656;7.188;2023-04-09T16:46:02;14.60;52.80
9941;DHT22;5009;50.656;7.188;2023-04-09T16:48:30;14.50;52.40
9941;DHT22;5009;50.656;7.188;2023-04-09T16:50:56;14.30;52.40
9941;DHT22;5009;50.656;7.188;2023-04-09T16:53:22;14.30;52.70
9941;DHT22;5009;50.656;7.188;2023-04-09T16:55:47;14.30;53.00
9941;DHT22;5009;50.656;7.188;2023-04-09T16:58:13;14.20;52.60
9941;DHT22;5009;50.656;7.188;2023-04-09T17:00:39;14.20;52.80
9941;DHT22;5009;50.656;7.188;2023-04-09T17:03:05;14.20;52.90
9941;DHT22;5009;50.656;7.188;2023-04-09T17:05:30;14.10;53.00
9941;DHT22;5009;50.656;7.188;2023-04-09T17:07:56;14.10;53.10
9941;DHT22;5009;50.656;7.188;2023-04-09T17:10:22;14.00;53.10
9941;DHT22;5009;50.656;7.188;2023-04-09T17:12:47;14.10;53.30
9941;DHT22;5009;50.656;7.188;2023-04-09T17:15:15;14.10;53.50
9941;DHT22;5009;50.656;7.188;2023-04-09T17:17:40;13.90;52.90
9941;DHT22;5009;50.656;7.188;2023-04-09T17:20:08;13.90;53.30
9941;DHT22;5009;50.656;7.188;2023-04-09T17:22:33;13.90;53.40
9941;DHT22;5009;50.656;7.188;2023-04-09T17:24:59;13.90;53.50
9941;DHT22;5009;50.656;7.188;2023-04-09T17:27:26;13.90;53.70
9941;DHT22;5009;50.656;7.188;2023-04-09T17:29:51;13.90;53.80
9941;DHT22;5009;50.656;7.188;2023-04-09T17:32:18;13.90;53.90
9941;DHT22;5009;50.656;7.188;2023-04-09T17:34:46;13.80;53.90
9941;DHT22;5009;50.656;7.188;2023-04-09T17:37:13;13.70;53.90
9941;DHT22;5009;50.656;7.188;2023-04-09T17:39:39;13.70;54.00
9941;DHT22;5009;50.656;7.188;2023-04-09T17:42:05;13.50;54.00
9941;DHT22;5009;50.656;7.188;2023-04-09T17:44:31;13.60;54.30
9941;DHT22;5009;50.656;7.188;2023-04-09T17:47:00;13.60;54.20
9941;DHT22;5009;50.656;7.188;2023-04-09T17:49:30;13.50;54.30
9941;DHT22;5009;50.656;7.188;2023-04-09T17:51:57;13.50;54.20
9941;DHT22;5009;50.656;7.188;2023-04-09T17:54:22;13.40;54.00
9941;DHT22;5009;50.656;7.188;2023-04-09T17:56:48;13.40;54.10
9941;DHT22;5009;50.656;7.188;2023-04-09T17:59:13;13.30;54.10
9941;DHT22;5009;50.656;7.188;2023-04-09T18:01:39;13.30;54.00
9941;DHT22;5009;50.656;7.188;2023-04-09T18:04:05;13.30;54.20
9941;DHT22;5009;50.656;7.188;2023-04-09T18:06:30;13.20;54.10
9941;DHT22;5009;50.656;7.188;2023-04-09T18:08:56;13.20;54.40
9941;DHT22;5009;50.656;7.188;2023-04-09T18:11:22;13.10;54.60
9941;DHT22;5009;50.656;7.188;2023-04-09T18:13:51;13.10;54.50
9941;DHT22;5009;50.656;7.188;2023-04-09T18:16:17;13.10;54.80
9941;DHT22;5009;50.656;7.188;2023-04-09T18:18:45;12.90;54.80
9941;DHT22;5009;50.656;7.188;2023-04-09T18:21:10;12.90;55.00
9941;DHT22;5009;50.656;7.188;2023-04-09T18:23:36;12.80;55.10
9941;DHT22;5009;50.656;7.188;2023-04-09T18:26:03;12.80;55.30
9941;DHT22;5009;50.656;7.188;2023-04-09T18:28:29;12.80;55.50
9941;DHT22;5009;50.656;7.188;2023-04-09T18:30:55;12.80;55.60
9941;DHT22;5009;50.656;7.188;2023-04-09T18:33:20;12.70;56.00
9941;DHT22;5009;50.656;7.188;2023-04-09T18:35:46;12.70;56.00
9941;DHT22;5009;50.656;7.188;2023-04-09T18:38:11;12.60;56.10
9941;DHT22;5009;50.656;7.188;2023-04-09T18:40:46;12.60;56.40
9941;DHT22;5009;50.656;7.188;2023-04-09T18:43:11;12.50;56.40
9941;DHT22;5009;50.656;7.188;2023-04-09T18:45:37;12.40;56.50
9941;DHT22;5009;50.656;7.188;2023-04-09T18:48:06;12.40;56.70
9941;DHT22;5009;50.656;7.188;2023-04-09T18:50:32;12.40;56.90
9941;DHT22;5009;50.656;7.188;2023-04-09T18:52:58;12.40;56.90
9941;DHT22;5009;50.656;7.188;2023-04-09T18:55:23;12.40;57.10
9941;DHT22;5009;50.656;7.188;2023-04-09T18:57:49;12.30;57.30
9941;DHT22;5009;50.656;7.188;2023-04-09T19:00:15;12.20;57.20
9941;DHT22;5009;50.656;7.188;2023-04-09T19:02:41;12.10;57.20
9941;DHT22;5009;50.656;7.188;2023-04-09T19:05:07;12.10;57.50
9941;DHT22;5009;50.656;7.188;2023-04-09T19:07:32;12.10;57.60
9941;DHT22;5009;50.656;7.188;2023-04-09T19:09:58;12.00;57.70
9941;DHT22;5009;50.656;7.188;2023-04-09T19:12:25;12.00;58.00
9941;DHT22;5009;50.656;7.188;2023-04-09T19:14:51;11.90;58.00
9941;DHT22;5009;50.656;7.188;2023-04-09T19:17:18;11.90;58.60
9941;DHT22;5009;50.656;7.188;2023-04-09T19:19:43;11.80;58.80
9941;DHT22;5009;50.656;7.188;2023-04-09T19:22:09;11.70;59.10
9941;DHT22;5009;50.656;7.188;2023-04-09T19:24:34;11.70;59.10
9941;DHT22;5009;50.656;7.188;2023-04-09T19:27:00;11.70;59.20
9941;DHT22;5009;50.656;7.188;2023-04-09T19:29:32;11.70;59.30
9941;DHT22;5009;50.656;7.188;2023-04-09T19:31:57;11.60;59.60
9941;DHT22;5009;50.656;7.188;2023-04-09T19:34:23;11.60;59.50
9941;DHT22;5009;50.656;7.188;2023-04-09T19:36:48;11.50;59.70
9941;DHT22;5009;50.656;7.188;2023-04-09T19:39:14;11.50;60.20
9941;DHT22;5009;50.656;7.188;2023-04-09T19:41:39;11.40;60.20
9941;DHT22;5009;50.656;7.188;2023-04-09T19:44:05;11.40;60.30
9941;DHT22;5009;50.656;7.188;2023-04-09T19:46:33;11.30;61.10
9941;DHT22;5009;50.656;7.188;2023-04-09T19:48:58;11.40;62.10
9941;DHT22;5009;50.656;7.188;2023-04-09T19:51:24;11.30;62.60
9941;DHT22;5009;50.656;7.188;2023-04-09T19:53:50;11.30;64.00
9941;DHT22;5009;50.656;7.188;2023-04-09T19:56:15;11.30;65.20
9941;DHT22;5009;50.656;7.188;2023-04-09T19:58:42;11.20;65.80
9941;DHT22;5009;50.656;7.188;2023-04-09T20:01:08;11.20;65.80
9941;DHT22;5009;50.656;7.188;2023-04-09T20:03:34;11.10;66.60
9941;DHT22;5009;50.656;7.188;2023-04-09T20:06:04;11.00;66.90
9941;DHT22;5009;50.656;7.188;2023-04-09T20:08:30;11.00;67.90
9941;DHT22;5009;50.656;7.188;2023-04-09T20:10:55;11.00;69.70